createdAt,value
2023-05-01T00:00:37.235Z,88.97
2023-05-01T00:03:23.232Z,89.74
2023-05-01T00:06:08.559Z,90.58
2023-05-01T00:08:53.928Z,91.20
2023-05-01T00:11:39.269Z,90.23
2023-05-01T00:14:24.754Z,89.74
2023-05-01T00:17:10.097Z,90.06
2023-05-01T00:19:55.232Z,89.98
2023-05-01T00:22:40.619Z,89.36
2023-05-01T00:25:25.533Z,88.21
2023-05-01T00:28:10.954Z,88.36
2023-05-01T00:30:57.392Z,88.87
2023-05-01T00:33:42.482Z,88.48
2023-05-01T00:36:27.880Z,88.48
2023-05-01T00:39:13.058Z,88.74
2023-05-01T00:41:58.196Z,88.66
2023-05-01T00:44:43.721Z,87.08
2023-05-01T00:47:28.952Z,86.85
2023-05-01T00:50:14.691Z,84.97
2023-05-01T00:53:00.183Z,84.35
2023-05-01T00:55:45.974Z,84.03
2023-05-01T00:58:31.312Z,84.04
2023-05-01T01:01:16.441Z,83.82
2023-05-01T01:04:02.252Z,82.83
2023-05-01T01:06:55.887Z,81.75
2023-05-01T01:09:53.154Z,77.81
2023-05-01T01:13:14.100Z,77.62
2023-05-01T01:16:06.320Z,75.19
2023-05-01T01:19:01.754Z,72.22
2023-05-01T01:21:51.923Z,69.93
2023-05-01T01:24:55.205Z,68.62
2023-05-01T01:28:25.364Z,68.43
2023-05-01T01:31:34.876Z,68.44
2023-05-01T01:34:26.498Z,68.72
2023-05-01T01:37:19.506Z,68.37
2023-05-01T01:40:12.900Z,67.58
2023-05-01T01:43:10.698Z,67.36
2023-05-01T01:46:03.757Z,67.32
2023-05-01T01:48:51.204Z,67.39
2023-05-01T01:51:39.820Z,67.11
2023-05-01T01:54:31.356Z,67.18
2023-05-01T01:57:20.747Z,67.29
2023-05-01T02:00:09.290Z,67.21
2023-05-01T02:02:56.609Z,67.89
2023-05-01T02:05:43.502Z,67.82
2023-05-01T02:08:31.587Z,67.49
2023-05-01T02:11:20.438Z,67.35
2023-05-01T02:14:07.381Z,67.49
2023-05-01T02:16:52.670Z,67.83
2023-05-01T02:19:38.903Z,68.11
2023-05-01T02:22:26.035Z,68.31
2023-05-01T02:25:13.525Z,68.14
2023-05-01T02:28:06.660Z,68.11
2023-05-01T02:30:51.825Z,67.95
2023-05-01T02:33:37.112Z,68.13
2023-05-01T02:36:22.553Z,68.07
2023-05-01T02:39:08.205Z,68.17
2023-05-01T02:41:54.804Z,68.01
2023-05-01T02:44:44.772Z,67.73
2023-05-01T02:47:32.320Z,67.32
2023-05-01T02:50:18.028Z,67.86
2023-05-01T02:53:03.542Z,67.78
2023-05-01T02:55:50.043Z,67.96
2023-05-01T02:58:35.702Z,67.87
2023-05-01T03:01:21.359Z,67.69
2023-05-01T03:04:06.897Z,68.09
2023-05-01T03:06:52.264Z,68.11
2023-05-01T03:09:37.496Z,67.80
2023-05-01T03:12:22.921Z,67.69
2023-05-01T03:15:09.009Z,67.95
2023-05-01T03:17:54.249Z,68.27
2023-05-01T03:20:39.514Z,68.28
2023-05-01T03:23:25.498Z,68.14
2023-05-01T03:26:10.641Z,67.81
2023-05-01T03:28:56.110Z,68.65
2023-05-01T03:31:41.455Z,68.84
2023-05-01T03:34:26.779Z,68.86
2023-05-01T03:37:12.047Z,68.30
2023-05-01T03:39:57.142Z,67.93
2023-05-01T03:42:42.336Z,67.87
2023-05-01T03:45:27.680Z,68.10
2023-05-01T03:48:12.595Z,68.02
2023-05-01T03:50:57.926Z,68.27
2023-05-01T03:53:43.425Z,68.02
2023-05-01T03:56:28.635Z,68.43
2023-05-01T03:59:14.175Z,68.13
2023-05-01T04:01:59.422Z,68.67
2023-05-01T04:04:44.594Z,68.24
2023-05-01T04:07:29.505Z,68.01
2023-05-01T04:10:14.880Z,67.67
2023-05-01T04:13:00.337Z,68.19
2023-05-01T04:15:46.415Z,68.09
2023-05-01T04:18:31.690Z,68.39
2023-05-01T04:21:17.312Z,68.26
2023-05-01T04:24:02.555Z,67.82
2023-05-01T04:26:47.708Z,67.69
2023-05-01T04:29:33.097Z,67.86
2023-05-01T04:32:18.020Z,67.83
2023-05-01T04:35:04.297Z,67.64
2023-05-01T04:37:49.529Z,67.80
2023-05-01T04:40:34.958Z,67.21
2023-05-01T04:43:20.273Z,67.19
2023-05-01T04:46:06.084Z,67.17
2023-05-01T04:48:51.360Z,66.88
2023-05-01T04:51:36.552Z,66.80
2023-05-01T04:54:22.527Z,66.49
2023-05-01T04:57:07.540Z,66.71
2023-05-01T04:59:53.097Z,67.04
2023-05-01T05:02:38.631Z,66.59
2023-05-01T05:05:23.735Z,66.25
2023-05-01T05:08:09.160Z,66.39
2023-05-01T05:10:58.506Z,66.39
2023-05-01T05:13:44.057Z,66.24
2023-05-01T05:16:29.463Z,65.67
2023-05-01T05:19:14.389Z,65.54
2023-05-01T05:22:02.299Z,65.78
2023-05-01T05:24:47.371Z,65.61
2023-05-01T05:27:32.817Z,64.97
2023-05-01T05:30:18.282Z,64.89
2023-05-01T05:33:03.759Z,64.80
2023-05-01T05:35:48.977Z,65.18
2023-05-01T05:38:34.498Z,65.36
2023-05-01T05:41:20.221Z,65.65
2023-05-01T05:44:05.538Z,65.78
2023-05-01T05:46:50.924Z,64.99
2023-05-01T05:49:36.625Z,65.02
2023-05-01T05:52:21.985Z,64.92
2023-05-01T05:55:07.756Z,63.77
2023-05-01T05:57:53.124Z,63.98
2023-05-01T06:00:38.166Z,64.52
2023-05-01T06:03:23.733Z,63.75
2023-05-01T06:06:09.592Z,64.47
2023-05-01T06:08:54.903Z,64.10
2023-05-01T06:11:39.917Z,63.81
2023-05-01T06:14:25.165Z,64.02
2023-05-01T06:17:10.884Z,63.40
2023-05-01T06:19:56.342Z,63.28
2023-05-01T06:22:41.875Z,63.32
2023-05-01T06:25:27.414Z,63.28
2023-05-01T06:28:12.534Z,62.26
2023-05-01T06:30:58.058Z,62.73
2023-05-01T06:33:43.432Z,63.69
2023-05-01T06:36:28.821Z,63.26
2023-05-01T06:39:13.769Z,62.70
2023-05-01T06:41:59.254Z,61.99
2023-05-01T06:44:44.741Z,62.50
2023-05-01T06:47:30.037Z,61.82
2023-05-01T06:50:15.477Z,61.33
2023-05-01T06:53:00.588Z,61.35
2023-05-01T06:55:45.564Z,60.47
2023-05-01T06:58:31.032Z,60.12
2023-05-01T07:01:16.693Z,59.97
2023-05-01T07:04:01.882Z,59.99
2023-05-01T07:06:47.348Z,59.72
2023-05-01T07:09:32.575Z,59.35
2023-05-01T07:12:18.065Z,59.35
2023-05-01T07:15:03.785Z,59.47
2023-05-01T07:17:53.397Z,59.99
2023-05-01T07:20:38.465Z,60.56
2023-05-01T07:23:23.882Z,60.20
2023-05-01T07:26:09.080Z,60.96
2023-05-01T07:28:54.281Z,60.15
2023-05-01T07:31:39.617Z,59.85
2023-05-01T07:34:24.901Z,60.33
2023-05-01T07:37:10.281Z,59.65
2023-05-01T07:39:56.733Z,58.97
2023-05-01T07:42:42.030Z,58.30
2023-05-01T07:45:27.671Z,57.93
2023-05-01T07:48:13.008Z,57.42
2023-05-01T07:51:02.720Z,56.92
2023-05-01T07:53:47.972Z,57.33
2023-05-01T07:56:33.374Z,58.13
2023-05-01T07:59:18.662Z,57.81
2023-05-01T08:02:03.692Z,57.46
2023-05-01T08:04:48.953Z,56.88
2023-05-01T08:07:34.353Z,56.13
2023-05-01T08:10:19.839Z,55.95
2023-05-01T08:13:05.117Z,55.11
2023-05-01T08:15:50.381Z,54.38
2023-05-01T08:18:35.717Z,53.31
2023-05-01T08:21:21.192Z,53.71
2023-05-01T08:24:09.225Z,53.68
2023-05-01T08:26:54.300Z,52.07
2023-05-01T08:29:39.232Z,51.81
2023-05-01T08:32:24.623Z,52.21
2023-05-01T08:35:10.292Z,51.98
2023-05-01T08:37:55.290Z,51.15
2023-05-01T08:40:43.812Z,50.39
2023-05-01T08:43:31.296Z,50.77
2023-05-01T08:46:36.805Z,49.61
2023-05-01T08:49:23.986Z,50.64
2023-05-01T08:52:11.791Z,50.40
2023-05-01T08:54:57.406Z,50.00
2023-05-01T08:57:46.813Z,49.20
2023-05-01T09:00:32.842Z,49.64
2023-05-01T09:03:19.124Z,49.64
2023-05-01T09:06:05.209Z,50.89
2023-05-01T09:08:50.497Z,50.94
2023-05-01T09:11:36.313Z,52.54
2023-05-01T09:14:21.927Z,52.07
2023-05-01T09:17:07.169Z,51.35
2023-05-01T09:19:53.457Z,49.70
2023-05-01T09:22:38.853Z,50.94
2023-05-01T09:25:23.972Z,50.86
2023-05-01T09:28:08.919Z,50.72
2023-05-01T09:30:53.962Z,49.51
2023-05-01T09:33:51.655Z,49.80
2023-05-01T09:36:36.709Z,50.17
2023-05-01T09:39:25.089Z,50.40
2023-05-01T09:42:12.259Z,50.92
2023-05-01T09:44:57.433Z,49.42
2023-05-01T09:47:43.293Z,46.50
2023-05-01T09:50:31.006Z,46.16
2023-05-01T09:53:17.032Z,46.99
2023-05-01T09:56:02.244Z,47.20
2023-05-01T09:58:49.809Z,46.99
2023-05-01T10:01:43.389Z,44.91
2023-05-01T10:04:35.256Z,44.35
2023-05-01T10:07:21.180Z,44.18
2023-05-01T10:10:19.945Z,46.88
2023-05-01T10:13:16.104Z,47.02
2023-05-01T10:16:01.195Z,47.73
2023-05-01T10:18:47.887Z,46.43
2023-05-01T10:21:36.072Z,46.34
2023-05-01T10:24:22.089Z,46.54
2023-05-01T10:27:07.447Z,48.10
2023-05-01T10:29:53.761Z,47.49
2023-05-01T10:32:41.794Z,47.14
2023-05-01T10:35:31.276Z,43.74
2023-05-01T10:38:25.739Z,44.38
2023-05-01T10:41:11.179Z,45.22
2023-05-01T10:44:25.902Z,44.34
2023-05-01T10:47:46.731Z,44.17
2023-05-01T10:50:31.724Z,44.55
2023-05-01T10:53:16.836Z,45.46
2023-05-01T10:56:02.749Z,45.22
2023-05-01T10:59:00.978Z,45.84
2023-05-01T11:01:47.779Z,45.65
2023-05-01T11:04:46.701Z,45.96
2023-05-01T11:07:32.154Z,45.32
2023-05-01T11:10:27.266Z,44.77
2023-05-01T11:13:12.576Z,44.12
2023-05-01T11:15:57.897Z,44.51
2023-05-01T11:18:46.436Z,43.97
2023-05-01T11:21:34.793Z,45.18
2023-05-01T11:24:19.933Z,43.97
2023-05-01T11:27:06.750Z,42.51
2023-05-01T11:29:53.614Z,43.51
2023-05-01T11:32:43.917Z,42.22
2023-05-01T11:35:29.447Z,41.62
2023-05-01T11:38:17.805Z,40.01
2023-05-01T11:41:03.908Z,41.01
2023-05-01T11:43:50.229Z,40.96
2023-05-01T11:46:35.718Z,41.43
2023-05-01T11:49:29.501Z,40.91
2023-05-01T11:52:14.498Z,41.78
2023-05-01T11:54:59.630Z,40.95
2023-05-01T11:57:52.448Z,40.79
2023-05-01T12:00:42.971Z,42.45
2023-05-01T12:03:28.760Z,41.79
2023-05-01T12:06:14.220Z,40.97
2023-05-01T12:09:00.608Z,41.35
2023-05-01T12:11:52.984Z,40.72
2023-05-01T12:14:39.972Z,39.68
2023-05-01T12:17:25.599Z,39.49
2023-05-01T12:20:11.078Z,40.08
2023-05-01T12:22:56.014Z,40.20
2023-05-01T12:25:41.797Z,40.91
2023-05-01T12:28:27.973Z,41.57
2023-05-01T12:31:13.006Z,43.47
2023-05-01T12:34:00.696Z,42.46
2023-05-01T12:36:53.521Z,41.57
2023-05-01T12:39:40.631Z,42.63
2023-05-01T12:42:25.493Z,42.40
2023-05-01T12:45:10.891Z,41.53
2023-05-01T12:47:56.183Z,41.03
2023-05-01T12:50:42.043Z,41.04
2023-05-01T12:53:28.210Z,39.59
2023-05-01T12:56:22.261Z,41.46
2023-05-01T12:59:07.481Z,41.45
2023-05-01T13:02:07.849Z,40.92
2023-05-01T13:04:53.153Z,40.17
2023-05-01T13:07:38.615Z,40.95
2023-05-01T13:10:30.738Z,40.35
2023-05-01T13:13:27.181Z,40.06
2023-05-01T13:16:14.275Z,39.27
2023-05-01T13:18:59.792Z,39.56
2023-05-01T13:21:49.466Z,40.05
2023-05-01T13:24:41.987Z,38.39
2023-05-01T13:27:27.514Z,38.30
2023-05-01T13:30:12.833Z,38.45
2023-05-01T13:32:58.212Z,36.72
2023-05-01T13:35:43.310Z,39.19
2023-05-01T13:38:29.118Z,39.09
2023-05-01T13:41:19.915Z,38.37
2023-05-01T13:44:06.470Z,37.34
2023-05-01T13:46:55.176Z,37.79
2023-05-01T13:49:41.858Z,39.63
2023-05-01T13:52:27.179Z,40.14
2023-05-01T13:55:13.614Z,39.18
2023-05-01T13:58:00.995Z,41.98
2023-05-01T14:00:45.922Z,40.46
2023-05-01T14:03:39.729Z,42.32
2023-05-01T14:06:25.137Z,40.95
2023-05-01T14:09:10.801Z,40.07
2023-05-01T14:11:56.393Z,40.57
2023-05-01T14:14:47.184Z,40.04
2023-05-01T14:17:33.952Z,41.26
2023-05-01T14:20:19.547Z,41.02
2023-05-01T14:23:05.825Z,40.38
2023-05-01T14:25:51.322Z,39.42
2023-05-01T14:28:44.117Z,40.85
2023-05-01T14:31:30.652Z,39.29
2023-05-01T14:34:18.376Z,38.48
2023-05-01T14:37:04.812Z,38.14
2023-05-01T14:39:49.761Z,38.97
2023-05-01T14:42:34.777Z,39.98
2023-05-01T14:45:19.817Z,37.72
2023-05-01T14:48:05.371Z,39.39
2023-05-01T14:50:51.369Z,38.95
2023-05-01T14:53:36.520Z,40.72
2023-05-01T14:56:21.475Z,39.71
2023-05-01T14:59:06.978Z,40.99
2023-05-01T15:01:52.253Z,40.37
2023-05-01T15:04:37.686Z,39.80
2023-05-01T15:07:23.177Z,41.64
2023-05-01T15:10:08.988Z,41.56
2023-05-01T15:12:54.213Z,41.94
2023-05-01T15:15:39.379Z,42.01
2023-05-01T15:18:24.187Z,42.27
2023-05-01T15:21:09.097Z,42.39
2023-05-01T15:23:53.942Z,41.52
2023-05-01T15:26:39.050Z,40.03
2023-05-01T15:29:24.306Z,40.62
2023-05-01T15:32:12.303Z,40.19
2023-05-01T15:34:58.098Z,39.52
2023-05-01T15:37:43.284Z,40.22
2023-05-01T15:40:28.055Z,38.52
2023-05-01T15:43:13.177Z,37.95
2023-05-01T15:45:58.154Z,38.58
2023-05-01T15:48:43.499Z,38.26
2023-05-01T15:51:28.349Z,37.28
2023-05-01T15:54:13.264Z,38.75
2023-05-01T15:56:58.314Z,40.09
2023-05-01T15:59:43.919Z,38.61
2023-05-01T16:02:31.464Z,39.58
2023-05-01T16:05:19.222Z,40.25
2023-05-01T16:08:05.715Z,40.18
2023-05-01T16:10:50.956Z,40.40
2023-05-01T16:13:39.881Z,42.56
2023-05-01T16:16:26.590Z,44.12
2023-05-01T16:19:15.831Z,43.74
2023-05-01T16:22:03.319Z,44.22
2023-05-01T16:24:49.173Z,45.53
2023-05-01T16:27:34.615Z,45.70
2023-05-01T16:30:20.530Z,46.71
2023-05-01T16:33:08.523Z,47.65
2023-05-01T16:35:54.091Z,47.29
2023-05-01T16:38:39.242Z,47.84
2023-05-01T16:41:24.041Z,47.81
2023-05-01T16:44:09.051Z,47.74
2023-05-01T16:46:55.906Z,48.23
2023-05-01T16:49:41.476Z,47.80
2023-05-01T16:52:26.869Z,47.18
2023-05-01T16:55:12.010Z,48.19
2023-05-01T16:57:57.294Z,48.11
2023-05-01T17:00:44.071Z,48.92
2023-05-01T17:03:29.610Z,48.85
2023-05-01T17:06:14.430Z,48.96
2023-05-01T17:08:59.763Z,48.21
2023-05-01T17:11:44.642Z,48.31
2023-05-01T17:14:29.484Z,47.83
2023-05-01T17:17:15.499Z,48.43
2023-05-01T17:20:00.733Z,49.20
2023-05-01T17:22:46.493Z,49.80
2023-05-01T17:25:31.747Z,49.38
2023-05-01T17:28:16.633Z,48.99
2023-05-01T17:31:01.502Z,48.76
2023-05-01T17:33:46.450Z,49.21
2023-05-01T17:36:31.922Z,49.67
2023-05-01T17:39:20.354Z,50.14
2023-05-01T17:42:05.742Z,50.66
2023-05-01T17:44:50.687Z,50.83
2023-05-01T17:47:36.318Z,51.54
2023-05-01T17:50:21.585Z,51.89
2023-05-01T17:53:06.824Z,52.75
2023-05-01T17:55:52.151Z,54.86
2023-05-01T17:58:37.816Z,58.83
2023-05-01T18:01:22.941Z,59.52
2023-05-01T18:04:08.565Z,60.91
2023-05-01T18:06:53.984Z,61.72
2023-05-01T18:09:39.213Z,62.86
2023-05-01T18:12:24.777Z,63.67
2023-05-01T18:15:10.367Z,64.74
2023-05-01T18:17:55.821Z,65.12
2023-05-01T18:20:41.073Z,65.74
2023-05-01T18:23:26.555Z,64.68
2023-05-01T18:26:11.945Z,63.14
2023-05-01T18:28:56.810Z,63.68
2023-05-01T18:31:42.417Z,64.37
2023-05-01T18:34:27.596Z,65.74
2023-05-01T18:37:12.648Z,66.49
2023-05-01T18:39:58.067Z,66.76
2023-05-01T18:42:43.387Z,67.49
2023-05-01T18:45:28.289Z,67.87
2023-05-01T18:48:13.713Z,68.20
2023-05-01T18:51:08.281Z,68.12
2023-05-01T18:53:54.277Z,68.40
2023-05-01T18:56:39.537Z,69.03
2023-05-01T18:59:24.246Z,69.82
2023-05-01T19:02:09.248Z,71.02
2023-05-01T19:04:57.825Z,72.61
2023-05-01T19:07:43.656Z,72.88
2023-05-01T19:10:28.605Z,73.08
2023-05-01T19:13:13.694Z,73.97
2023-05-01T19:15:59.211Z,74.17
2023-05-01T19:18:45.780Z,74.62
2023-05-01T19:21:32.259Z,76.62
2023-05-01T19:24:17.217Z,77.14
2023-05-01T19:27:02.580Z,77.97
2023-05-01T19:29:47.722Z,79.05
2023-05-01T19:32:32.997Z,78.93
2023-05-01T19:35:18.279Z,78.70
2023-05-01T19:38:03.742Z,77.94
2023-05-01T19:40:49.138Z,80.74
2023-05-01T19:43:34.627Z,83.52
2023-05-01T19:46:19.972Z,84.80
2023-05-01T19:49:05.366Z,86.98
2023-05-01T19:51:50.198Z,87.21
2023-05-01T19:54:35.554Z,88.93
2023-05-01T19:57:21.039Z,88.32
2023-05-01T20:00:07.435Z,87.93
2023-05-01T20:02:52.793Z,88.38
2023-05-01T20:05:38.020Z,90.10
2023-05-01T20:08:22.926Z,91.63
2023-05-01T20:11:08.296Z,91.46
2023-05-01T20:13:53.673Z,90.95
2023-05-01T20:16:39.178Z,90.52
2023-05-01T20:19:24.497Z,90.20
2023-05-01T20:22:09.580Z,90.49
2023-05-01T20:24:54.542Z,89.99
2023-05-01T20:27:40.489Z,88.80
2023-05-01T20:30:25.595Z,88.63
2023-05-01T20:33:11.591Z,92.19
2023-05-01T20:35:56.918Z,97.38
2023-05-01T20:38:42.538Z,100.00
2023-05-01T20:41:27.460Z,100.00
2023-05-01T20:44:12.734Z,100.00
2023-05-01T20:46:58.073Z,100.00
2023-05-01T20:49:43.509Z,100.00
2023-05-01T20:52:28.841Z,100.00
2023-05-01T20:55:14.391Z,100.00
2023-05-01T20:57:59.932Z,100.00
2023-05-01T21:00:45.226Z,100.00
2023-05-01T21:03:32.143Z,100.00
2023-05-01T21:06:17.626Z,100.00
2023-05-01T21:09:04.647Z,100.00
2023-05-01T21:11:49.916Z,100.00
2023-05-01T21:14:35.190Z,100.00
2023-05-01T21:17:20.702Z,100.00
2023-05-01T21:20:14.433Z,100.00
2023-05-01T21:23:01.112Z,100.00
2023-05-01T21:25:46.533Z,100.00
2023-05-01T21:28:32.006Z,100.00
2023-05-01T21:31:17.253Z,100.00
2023-05-01T21:34:02.702Z,100.00
2023-05-01T21:36:47.979Z,100.00
2023-05-01T21:39:33.503Z,100.00
2023-05-01T21:42:18.993Z,100.00
2023-05-01T21:45:09.498Z,100.00
2023-05-01T21:47:54.738Z,100.00
2023-05-01T21:50:40.121Z,100.00
2023-05-01T21:53:28.028Z,100.00
2023-05-01T21:56:14.314Z,99.90
2023-05-01T21:59:04.862Z,100.00
2023-05-01T22:01:50.140Z,100.00
2023-05-01T22:04:35.793Z,100.00
2023-05-01T22:07:20.926Z,100.00
2023-05-01T22:10:12.101Z,100.00
2023-05-01T22:12:57.310Z,100.00
2023-05-01T22:15:42.239Z,100.00
2023-05-01T22:18:28.604Z,100.00
2023-05-01T22:21:13.966Z,100.00
2023-05-01T22:23:58.907Z,100.00
2023-05-01T22:26:44.202Z,100.00
2023-05-01T22:29:29.649Z,100.00
2023-05-01T22:32:15.137Z,100.00
2023-05-01T22:35:00.321Z,100.00
2023-05-01T22:37:45.679Z,100.00
2023-05-01T22:40:30.540Z,100.00
2023-05-01T22:43:15.479Z,100.00
2023-05-01T22:46:01.372Z,100.00
2023-05-01T22:48:46.714Z,100.00
2023-05-01T22:51:32.149Z,100.00
2023-05-01T22:54:17.536Z,100.00
2023-05-01T22:57:03.166Z,100.00
2023-05-01T22:59:48.584Z,100.00
2023-05-01T23:02:33.849Z,100.00
2023-05-01T23:05:18.867Z,100.00
2023-05-01T23:08:04.505Z,100.00
2023-05-01T23:10:49.687Z,100.00
2023-05-01T23:13:35.185Z,100.00
2023-05-01T23:16:20.485Z,100.00
2023-05-01T23:19:06.491Z,100.00
2023-05-01T23:22:09.212Z,100.00
2023-05-01T23:24:54.634Z,100.00
2023-05-01T23:27:52.455Z,100.00
2023-05-01T23:30:40.181Z,100.00
2023-05-01T23:33:27.092Z,100.00
2023-05-01T23:36:12.542Z,100.00
2023-05-01T23:38:57.839Z,100.00
2023-05-01T23:41:43.339Z,100.00
2023-05-01T23:44:28.481Z,100.00
2023-05-01T23:47:13.325Z,100.00
2023-05-01T23:49:59.155Z,100.00
2023-05-01T23:52:44.747Z,100.00
2023-05-01T23:55:30.226Z,100.00
2023-05-01T23:58:15.533Z,100.00
